createdAt,value
2022-09-01T00:00:34.448Z,12.07
2022-09-01T00:03:08.696Z,10.95
2022-09-01T00:05:41.465Z,9.07
2022-09-01T00:08:16.281Z,9.68
2022-09-01T00:10:51.123Z,9.10
2022-09-01T00:13:23.179Z,7.47
2022-09-01T00:15:55.235Z,8.93
2022-09-01T00:18:28.871Z,8.15
2022-09-01T00:21:00.886Z,8.52
2022-09-01T00:23:32.907Z,8.77
2022-09-01T00:26:05.631Z,7.72
2022-09-01T00:28:38.354Z,7.30
2022-09-01T00:31:11.698Z,6.75
2022-09-01T00:33:45.178Z,6.72
2022-09-01T00:36:18.336Z,6.30
2022-09-01T00:38:51.429Z,7.32
2022-09-01T00:41:27.482Z,7.80
2022-09-01T00:44:01.663Z,8.82
2022-09-01T00:46:41.370Z,12.00
2022-09-01T00:49:28.913Z,11.70
2022-09-01T00:52:08.090Z,11.07
2022-09-01T00:54:43.792Z,12.40
2022-09-01T00:57:17.329Z,11.35
2022-09-01T00:59:53.412Z,12.57
2022-09-01T01:02:25.948Z,12.60
2022-09-01T01:05:00.763Z,12.20
2022-09-01T01:07:38.883Z,13.85
2022-09-01T01:10:12.888Z,12.63
2022-09-01T01:12:45.546Z,16.02
2022-09-01T01:15:19.316Z,14.63
2022-09-01T01:17:51.447Z,13.27
2022-09-01T01:20:48.608Z,10.60
2022-09-01T01:23:26.799Z,13.52
2022-09-01T01:26:00.853Z,11.80
2022-09-01T01:28:37.143Z,12.15
2022-09-01T01:31:13.843Z,11.25
2022-09-01T01:33:47.702Z,10.60
2022-09-01T01:36:31.173Z,11.43
2022-09-01T01:39:08.957Z,10.70
2022-09-01T01:41:48.765Z,9.63
2022-09-01T01:44:27.942Z,9.80
2022-09-01T01:47:09.628Z,10.00
2022-09-01T01:49:45.559Z,8.95
2022-09-01T01:52:18.221Z,8.85
2022-09-01T01:54:51.438Z,7.82
2022-09-01T01:57:25.001Z,7.90
2022-09-01T01:59:57.053Z,8.68
2022-09-01T02:02:29.161Z,8.00
2022-09-01T02:05:01.267Z,7.88
2022-09-01T02:07:33.919Z,6.82
2022-09-01T02:10:06.542Z,7.28
2022-09-01T02:12:41.820Z,8.77
2022-09-01T02:15:14.058Z,8.05
2022-09-01T02:17:47.137Z,7.10
2022-09-01T02:20:19.221Z,7.05
2022-09-01T02:22:52.034Z,6.40
2022-09-01T02:25:24.591Z,5.25
2022-09-01T02:28:00.546Z,6.53
2022-09-01T02:30:34.403Z,5.35
2022-09-01T02:33:06.688Z,5.55
2022-09-01T02:35:38.956Z,5.63
2022-09-01T02:38:13.979Z,5.75
2022-09-01T02:40:46.949Z,5.82
2022-09-01T02:43:21.922Z,4.63
2022-09-01T02:45:57.785Z,5.60
2022-09-01T02:48:32.995Z,5.07
2022-09-01T02:51:08.044Z,5.18
2022-09-01T02:53:42.761Z,4.72
2022-09-01T02:56:17.150Z,4.40
2022-09-01T02:58:51.187Z,4.93
2022-09-01T03:01:26.333Z,4.40
2022-09-01T03:04:02.657Z,4.28
2022-09-01T03:06:37.609Z,4.10
2022-09-01T03:09:14.690Z,4.47
2022-09-01T03:11:50.656Z,3.88
2022-09-01T03:14:24.768Z,4.70
2022-09-01T03:16:57.703Z,4.00
2022-09-01T03:19:32.342Z,3.40
2022-09-01T03:22:04.820Z,3.92
2022-09-01T03:24:39.167Z,3.60
2022-09-01T03:27:11.847Z,2.83
2022-09-01T03:29:45.304Z,3.50
2022-09-01T03:32:17.383Z,3.60
2022-09-01T03:34:51.345Z,3.58
2022-09-01T03:37:23.514Z,3.35
2022-09-01T03:40:00.077Z,3.00
2022-09-01T03:42:32.521Z,3.17
2022-09-01T03:45:09.371Z,3.40
2022-09-01T03:47:42.575Z,3.33
2022-09-01T03:50:23.229Z,3.83
2022-09-01T03:52:58.769Z,2.90
2022-09-01T03:55:34.374Z,3.28
2022-09-01T03:58:10.046Z,3.10
2022-09-01T04:00:48.958Z,3.15
2022-09-01T04:03:28.736Z,3.35
2022-09-01T04:06:02.429Z,2.83
2022-09-01T04:08:35.118Z,3.50
2022-09-01T04:11:13.973Z,2.97
2022-09-01T04:13:47.436Z,2.88
2022-09-01T04:16:42.590Z,3.22
2022-09-01T04:19:21.138Z,3.10
2022-09-01T04:21:56.658Z,3.72
2022-09-01T04:24:32.882Z,3.05
2022-09-01T04:27:07.673Z,2.92
2022-09-01T04:29:39.846Z,2.80
2022-09-01T04:32:15.946Z,2.67
2022-09-01T04:34:53.378Z,3.08
2022-09-01T04:37:25.381Z,3.15
2022-09-01T04:40:05.114Z,3.47
2022-09-01T04:42:37.430Z,3.17
2022-09-01T04:45:11.318Z,3.10
2022-09-01T04:47:51.211Z,2.50
2022-09-01T04:50:25.989Z,3.25
2022-09-01T04:53:17.369Z,2.33
2022-09-01T04:55:54.771Z,3.17
2022-09-01T04:58:29.224Z,2.92
2022-09-01T05:01:03.820Z,3.10
2022-09-01T05:03:37.339Z,2.97
2022-09-01T05:06:20.583Z,3.00
2022-09-01T05:08:59.438Z,2.78
2022-09-01T05:11:48.616Z,2.70
2022-09-01T05:14:29.667Z,2.53
2022-09-01T05:17:06.859Z,3.05
2022-09-01T05:19:45.070Z,2.03
2022-09-01T05:22:22.300Z,1.65
2022-09-01T05:25:11.764Z,2.33
2022-09-01T05:27:49.566Z,2.22
2022-09-01T05:30:24.105Z,1.80
2022-09-01T05:32:56.294Z,2.00
2022-09-01T05:35:32.934Z,1.80
2022-09-01T05:38:05.460Z,1.27
2022-09-01T05:40:41.107Z,1.73
2022-09-01T05:43:14.903Z,1.50
2022-09-01T05:46:05.665Z,1.58
2022-09-01T05:48:40.325Z,1.55
2022-09-01T05:51:42.758Z,1.30
2022-09-01T05:54:12.992Z,1.35
2022-09-01T05:56:45.930Z,1.02
2022-09-01T05:59:30.225Z,1.25
2022-09-01T06:02:22.976Z,1.33
2022-09-01T06:04:57.004Z,0.93
2022-09-01T06:07:35.827Z,1.13
2022-09-01T06:10:08.852Z,1.20
2022-09-01T06:12:41.114Z,1.00
2022-09-01T06:15:16.479Z,0.90
2022-09-01T06:17:53.610Z,1.10
2022-09-01T06:20:26.508Z,0.80
2022-09-01T06:23:00.228Z,0.90
2022-09-01T06:25:32.780Z,0.90
2022-09-01T06:28:05.910Z,0.85
2022-09-01T06:30:38.960Z,0.80
2022-09-01T06:33:14.666Z,0.82
2022-09-01T06:35:56.045Z,1.00
2022-09-01T06:38:30.654Z,0.85
2022-09-01T06:41:04.345Z,0.80
2022-09-01T06:43:37.026Z,0.95
2022-09-01T06:46:09.971Z,0.82
2022-09-01T06:48:46.663Z,0.65
2022-09-01T06:51:22.318Z,0.82
2022-09-01T06:53:59.780Z,1.05
2022-09-01T06:59:34.871Z,0.80
2022-09-01T07:02:17.696Z,0.50
2022-09-01T07:08:22.018Z,0.80
2022-09-01T07:14:21.219Z,0.88
2022-09-01T07:17:22.933Z,0.60
2022-09-01T07:19:50.014Z,0.65
2022-09-01T07:23:02.974Z,0.88
2022-09-01T07:25:16.728Z,0.45
2022-09-01T07:28:37.646Z,0.52
2022-09-01T07:42:57.933Z,0.80
2022-09-01T07:43:17.782Z,0.70
2022-09-01T07:49:30.691Z,0.70
2022-09-01T07:52:07.427Z,0.70
2022-09-01T07:54:42.245Z,0.63
2022-09-01T07:57:15.427Z,0.40
2022-09-01T07:59:48.079Z,0.50
2022-09-01T08:02:25.559Z,0.70
2022-09-01T08:04:57.870Z,1.05
2022-09-01T08:07:29.904Z,4.40
2022-09-01T08:10:02.506Z,3.78
2022-09-01T08:12:36.751Z,3.08
2022-09-01T08:15:14.083Z,2.08
2022-09-01T08:18:07.347Z,2.17
2022-09-01T08:20:45.395Z,0.95
2022-09-01T08:23:29.096Z,1.38
2022-09-01T08:26:06.022Z,3.30
2022-09-01T08:28:39.618Z,1.48
2022-09-01T08:31:14.127Z,1.10
2022-09-01T08:33:49.246Z,2.83
2022-09-01T08:36:24.873Z,1.88
2022-09-01T08:38:58.263Z,1.30
2022-09-01T08:41:54.228Z,0.88
2022-09-01T08:44:39.496Z,1.67
2022-09-01T08:47:15.533Z,1.48
2022-09-01T08:49:51.337Z,0.93
2022-09-01T08:52:47.653Z,1.13
2022-09-01T08:55:27.412Z,1.20
2022-09-01T08:58:00.899Z,0.85
2022-09-01T09:00:43.521Z,1.17
2022-09-01T09:03:27.171Z,0.70
2022-09-01T09:06:15.408Z,0.60
2022-09-01T09:08:57.948Z,1.30
2022-09-01T09:11:42.994Z,1.67
2022-09-01T09:14:26.930Z,0.60
2022-09-01T09:16:59.732Z,0.57
2022-09-01T09:19:34.885Z,0.40
2022-09-01T09:22:11.710Z,0.32
2022-09-01T09:24:50.118Z,0.55
2022-09-01T09:27:23.998Z,0.38
2022-09-01T09:30:00.882Z,0.35
2022-09-01T09:33:19.968Z,0.30
2022-09-01T09:35:42.134Z,0.25
2022-09-01T09:38:33.615Z,0.30
2022-09-01T09:44:05.350Z,0.52
2022-09-01T09:46:40.523Z,0.40
2022-09-01T09:49:19.410Z,0.50
2022-09-01T09:52:16.379Z,0.50
2022-09-01T09:55:03.064Z,0.50
2022-09-01T09:57:41.570Z,0.30
2022-09-01T10:00:24.032Z,0.20
2022-09-01T10:02:59.867Z,0.43
2022-09-01T10:05:40.397Z,0.15
2022-09-01T10:08:16.570Z,0.22
2022-09-01T10:10:57.664Z,0.30
2022-09-01T10:13:32.944Z,0.30
2022-09-01T10:16:11.245Z,0.47
2022-09-01T10:18:46.290Z,0.28
2022-09-01T10:21:24.257Z,0.50
2022-09-01T10:24:17.056Z,0.20
2022-09-01T10:26:53.450Z,0.32
2022-09-01T10:29:35.114Z,0.30
2022-09-01T10:32:34.611Z,0.50
2022-09-01T10:35:07.417Z,0.20
2022-09-01T10:37:41.450Z,0.30
2022-09-01T10:40:26.085Z,0.40
2022-09-01T10:43:38.406Z,0.40
2022-09-01T10:46:51.177Z,0.47
2022-09-01T10:50:09.762Z,0.35
2022-09-01T10:53:06.707Z,0.30
2022-09-01T10:55:44.199Z,0.40
2022-09-01T11:02:23.593Z,0.50
2022-09-01T11:05:13.303Z,0.30
2022-09-01T11:08:09.058Z,0.30
2022-09-01T11:10:51.291Z,0.25
2022-09-01T11:13:37.596Z,0.40
2022-09-01T11:19:38.073Z,0.35
2022-09-01T11:22:19.943Z,0.50
2022-09-01T11:25:20.248Z,0.45
2022-09-01T11:28:02.164Z,0.38
2022-09-01T11:30:41.860Z,0.70
2022-09-01T11:33:27.773Z,1.50
2022-09-01T11:36:04.620Z,0.70
2022-09-01T11:38:46.352Z,0.50
2022-09-01T11:41:24.493Z,0.68
2022-09-01T11:43:58.289Z,0.70
2022-09-01T11:46:32.953Z,0.95
2022-09-01T11:49:08.967Z,0.57
2022-09-01T11:51:46.981Z,0.40
2022-09-01T11:54:19.076Z,0.52
2022-09-01T11:56:51.167Z,0.50
2022-09-01T11:59:34.837Z,0.32
2022-09-01T12:02:08.607Z,0.93
2022-09-01T12:04:41.191Z,0.40
2022-09-01T12:07:26.590Z,0.52
2022-09-01T12:09:58.723Z,0.90
2022-09-01T12:12:34.281Z,0.40
2022-09-01T12:15:11.834Z,0.40
2022-09-01T12:17:46.189Z,0.40
2022-09-01T12:20:31.076Z,0.63
2022-09-01T12:23:14.294Z,0.60
2022-09-01T12:25:46.599Z,0.80
2022-09-01T12:28:18.849Z,0.70
2022-09-01T12:30:51.928Z,0.47
2022-09-01T12:33:25.956Z,0.80
2022-09-01T12:36:22.511Z,0.50
2022-09-01T12:38:57.394Z,0.50
2022-09-01T12:41:35.676Z,0.50
2022-09-01T12:44:46.894Z,0.40
2022-09-01T12:47:50.548Z,0.73
2022-09-01T12:50:43.649Z,0.70
2022-09-01T12:53:25.806Z,0.63
2022-09-01T12:56:28.601Z,0.60
2022-09-01T12:59:14.117Z,0.70
2022-09-01T13:01:47.032Z,0.43
2022-09-01T13:04:28.635Z,0.82
2022-09-01T13:07:03.932Z,0.70
2022-09-01T13:09:36.180Z,0.50
2022-09-01T13:12:18.080Z,0.50
2022-09-01T13:14:50.871Z,0.50
2022-09-01T13:17:24.274Z,0.40
2022-09-01T13:19:56.316Z,0.60
2022-09-01T13:22:28.311Z,0.55
2022-09-01T13:25:00.665Z,0.40
2022-09-01T13:27:34.020Z,0.60
2022-09-01T13:30:07.082Z,0.80
2022-09-01T13:33:18.857Z,0.40
2022-09-01T13:35:31.649Z,0.38
2022-09-01T13:38:03.640Z,0.40
2022-09-01T13:40:35.727Z,0.45
2022-09-01T13:43:09.352Z,0.40
2022-09-01T13:45:42.038Z,0.47
2022-09-01T13:48:15.548Z,0.35
2022-09-01T13:53:42.512Z,0.40
2022-09-01T13:56:14.515Z,0.38
2022-09-01T13:58:48.705Z,0.45
2022-09-01T14:01:21.195Z,0.90
2022-09-01T14:03:56.068Z,0.63
2022-09-01T14:06:31.797Z,0.30
2022-09-01T14:09:04.011Z,0.50
2022-09-01T14:11:36.565Z,0.80
2022-09-01T14:14:09.917Z,0.50
2022-09-01T14:16:42.056Z,1.42
2022-09-01T14:19:14.097Z,0.50
2022-09-01T14:21:47.366Z,0.40
2022-09-01T14:24:21.074Z,0.65
2022-09-01T14:26:53.137Z,0.43
2022-09-01T14:29:27.679Z,0.32
2022-09-01T14:31:59.873Z,1.45
2022-09-01T14:34:31.890Z,0.65
2022-09-01T14:37:04.189Z,0.60
2022-09-01T14:39:36.195Z,0.60
2022-09-01T14:42:11.809Z,0.80
2022-09-01T14:44:45.243Z,0.68
2022-09-01T14:47:19.094Z,0.40
2022-09-01T14:49:52.191Z,0.57
2022-09-01T14:52:24.196Z,0.40
2022-09-01T14:54:56.193Z,0.60
2022-09-01T14:57:31.225Z,0.30
2022-09-01T15:00:12.867Z,0.35
2022-09-01T15:02:45.696Z,0.30
2022-09-01T15:05:17.847Z,0.50
2022-09-01T15:07:50.323Z,0.30
2022-09-01T15:10:25.837Z,0.50
2022-09-01T15:13:00.024Z,0.40
2022-09-01T15:15:34.541Z,0.40
2022-09-01T15:18:07.212Z,0.40
2022-09-01T15:20:47.114Z,0.57
2022-09-01T15:23:21.668Z,0.40
2022-09-01T15:25:55.440Z,1.75
2022-09-01T15:28:27.528Z,0.98
2022-09-01T15:31:01.147Z,0.82
2022-09-01T15:33:33.319Z,1.10
2022-09-01T15:36:05.567Z,1.02
2022-09-01T15:38:37.617Z,0.82
2022-09-01T15:41:09.809Z,0.60
2022-09-01T15:43:41.899Z,0.90
2022-09-01T15:46:15.428Z,0.40
2022-09-01T15:48:48.048Z,3.35
2022-09-01T15:51:32.942Z,2.20
2022-09-01T15:54:07.944Z,1.00
2022-09-01T15:56:40.399Z,1.02
2022-09-01T15:59:13.845Z,1.30
2022-09-01T16:01:47.499Z,1.20
2022-09-01T16:04:24.071Z,1.30
2022-09-01T16:06:59.369Z,0.60
2022-09-01T16:09:31.694Z,0.65
2022-09-01T16:12:04.155Z,0.60
2022-09-01T16:14:36.233Z,0.82
2022-09-01T16:17:16.028Z,2.70
2022-09-01T16:19:53.583Z,1.15
2022-09-01T16:22:28.696Z,2.85
2022-09-01T16:25:05.970Z,9.98
2022-09-01T16:27:42.012Z,2.63
2022-09-01T16:30:18.818Z,1.10
2022-09-01T16:32:52.284Z,1.20
2022-09-01T16:35:34.305Z,0.77
2022-09-01T16:38:16.846Z,1.17
2022-09-01T16:40:56.392Z,1.00
2022-09-01T16:43:34.716Z,1.00
2022-09-01T16:46:10.926Z,0.95
2022-09-01T16:48:49.337Z,0.75
2022-09-01T16:51:29.114Z,1.50
2022-09-01T16:54:20.821Z,1.17
2022-09-01T16:56:58.545Z,1.95
2022-09-01T16:59:41.106Z,3.95
2022-09-01T17:02:27.523Z,8.07
2022-09-01T17:05:07.902Z,12.82
2022-09-01T17:10:29.039Z,9.70
2022-09-01T17:13:16.513Z,8.38
2022-09-01T17:15:55.933Z,7.63
2022-09-01T17:18:34.546Z,7.50
2022-09-01T17:21:16.469Z,11.82
2022-09-01T17:23:55.765Z,14.77
2022-09-01T17:26:29.952Z,21.42
2022-09-01T17:29:09.439Z,13.25
2022-09-01T17:31:49.289Z,7.68
2022-09-01T17:34:33.988Z,10.10
2022-09-01T17:37:18.544Z,10.98
2022-09-01T17:39:59.693Z,6.53
2022-09-01T17:42:38.310Z,9.13
2022-09-01T17:45:17.364Z,6.25
2022-09-01T17:47:58.868Z,4.00
2022-09-01T17:53:33.865Z,4.10
2022-09-01T17:56:14.000Z,3.08
2022-09-01T17:58:55.538Z,2.05
2022-09-01T18:01:34.150Z,1.60
2022-09-01T18:04:56.536Z,1.50
2022-09-01T18:08:04.238Z,1.17
2022-09-01T18:10:41.360Z,1.40
2022-09-01T18:13:30.607Z,0.60
2022-09-01T18:16:09.755Z,0.57
2022-09-01T18:18:44.493Z,0.85
2022-09-01T18:21:20.291Z,1.45
2022-09-01T18:23:58.572Z,1.05
2022-09-01T18:26:37.012Z,1.13
2022-09-01T18:29:09.218Z,1.30
2022-09-01T18:32:11.270Z,0.88
2022-09-01T18:34:56.431Z,0.85
2022-09-01T18:37:39.334Z,0.68
2022-09-01T18:40:19.279Z,0.85
2022-09-01T18:43:00.885Z,1.17
2022-09-01T18:45:43.686Z,1.35
2022-09-01T18:48:29.157Z,1.17
2022-09-01T18:51:07.353Z,1.10
2022-09-01T18:53:45.971Z,1.25
2022-09-01T18:56:31.471Z,1.98
2022-09-01T18:59:25.794Z,1.17
2022-09-01T19:04:50.099Z,2.58
2022-09-01T19:07:31.479Z,3.90
2022-09-01T19:10:08.468Z,3.95
2022-09-01T19:12:51.625Z,5.15
2022-09-01T19:15:30.462Z,7.55
2022-09-01T19:18:15.541Z,9.73
2022-09-01T19:20:52.631Z,13.57
2022-09-01T19:23:40.604Z,15.35
2022-09-01T19:26:18.455Z,16.42
2022-09-01T19:28:52.719Z,17.95
2022-09-01T19:31:29.215Z,17.50
2022-09-01T19:34:06.410Z,10.57
2022-09-01T19:36:41.747Z,5.45
2022-09-01T19:39:16.939Z,5.28
2022-09-01T19:41:53.092Z,4.78
2022-09-01T19:44:34.019Z,6.72
2022-09-01T19:47:13.743Z,7.20
2022-09-01T19:49:53.978Z,7.82
2022-09-01T19:52:34.496Z,10.05
2022-09-01T19:55:14.141Z,5.53
2022-09-01T19:57:51.947Z,2.97
2022-09-01T20:00:35.274Z,2.40
2022-09-01T20:03:13.123Z,1.20
2022-09-01T20:05:50.455Z,1.80
2022-09-01T20:08:28.771Z,2.90
2022-09-01T20:11:07.107Z,2.65
2022-09-01T20:13:58.128Z,1.42
2022-09-01T20:16:35.332Z,1.38
2022-09-01T20:19:12.012Z,1.52
2022-09-01T20:21:45.999Z,1.88
2022-09-01T20:24:29.246Z,1.48
2022-09-01T20:27:05.382Z,1.15
2022-09-01T20:29:49.892Z,1.20
2022-09-01T20:32:28.131Z,1.10
2022-09-01T20:35:08.914Z,1.48
2022-09-01T20:37:45.293Z,1.45
2022-09-01T20:40:24.512Z,0.98
2022-09-01T20:43:12.670Z,1.02
2022-09-01T20:45:46.166Z,0.80
2022-09-01T20:48:24.131Z,0.77
2022-09-01T20:51:01.519Z,1.00
2022-09-01T20:53:51.121Z,0.95
2022-09-01T20:56:29.549Z,1.03
2022-09-01T20:59:09.001Z,1.30
2022-09-01T21:01:47.522Z,1.20
2022-09-01T21:04:32.689Z,1.30
2022-09-01T21:07:15.448Z,0.93
2022-09-01T21:09:58.275Z,1.15
2022-09-01T21:12:36.313Z,1.15
2022-09-01T21:15:20.937Z,1.20
2022-09-01T21:18:03.875Z,1.38
2022-09-01T21:20:54.665Z,1.35
2022-09-01T21:23:29.904Z,1.35
2022-09-01T21:26:02.051Z,1.40
2022-09-01T21:28:34.719Z,1.55
2022-09-01T21:31:08.879Z,1.45
2022-09-01T21:33:40.962Z,1.25
2022-09-01T21:36:12.955Z,1.42
2022-09-01T21:38:46.388Z,1.65
2022-09-01T21:41:18.440Z,1.58
2022-09-01T21:43:50.468Z,1.88
2022-09-01T21:46:22.492Z,1.65
2022-09-01T21:48:55.265Z,1.90
2022-09-01T21:51:27.420Z,1.50
2022-09-01T21:54:00.868Z,1.80
2022-09-01T21:56:32.905Z,1.60
2022-09-01T21:59:05.519Z,2.28
2022-09-01T22:01:37.756Z,2.10
2022-09-01T22:04:10.043Z,2.28
2022-09-01T22:06:42.478Z,2.40
2022-09-01T22:09:21.086Z,2.70
2022-09-01T22:11:53.556Z,2.67
2022-09-01T22:14:27.840Z,2.58
2022-09-01T22:17:04.130Z,1.95
2022-09-01T22:19:36.958Z,2.47
2022-09-01T22:22:08.998Z,2.08
2022-09-01T22:24:42.494Z,2.38
2022-09-01T22:27:14.551Z,1.90
2022-09-01T22:29:46.883Z,1.92
2022-09-01T22:32:18.901Z,2.58
2022-09-01T22:34:51.165Z,2.35
2022-09-01T22:37:23.199Z,2.65
2022-09-01T22:39:56.582Z,3.00
2022-09-01T22:42:28.549Z,2.10
2022-09-01T22:45:00.889Z,2.53
2022-09-01T22:47:35.278Z,2.20
2022-09-01T22:50:10.902Z,2.30
2022-09-01T22:52:43.767Z,1.67
2022-09-01T22:55:17.199Z,1.52
2022-09-01T22:57:49.270Z,2.08
2022-09-01T23:00:22.862Z,1.58
2022-09-01T23:02:55.406Z,1.20
2022-09-01T23:05:27.582Z,1.20
2022-09-01T23:07:59.792Z,1.60
2022-09-01T23:10:33.325Z,1.33
2022-09-01T23:13:05.387Z,1.50
2022-09-01T23:15:37.422Z,1.40
2022-09-01T23:18:09.477Z,1.70
2022-09-01T23:20:41.517Z,1.95
2022-09-01T23:23:15.151Z,2.10
2022-09-01T23:25:53.333Z,1.45
2022-09-01T23:28:25.591Z,1.48
2022-09-01T23:30:57.657Z,1.25
2022-09-01T23:33:30.945Z,1.00
2022-09-01T23:36:06.742Z,1.13
2022-09-01T23:38:39.059Z,0.80
2022-09-01T23:41:15.059Z,0.70
2022-09-01T23:43:47.121Z,0.65
2022-09-01T23:46:21.287Z,0.43
2022-09-01T23:48:53.381Z,0.80
2022-09-01T23:51:26.619Z,0.40
2022-09-01T23:53:59.172Z,0.30
2022-09-01T23:56:32.977Z,0.40
2022-09-01T23:59:06.365Z,0.50
